Time;durP1;ratioP1;P1;durP2;ratioP2;P2;SDS_P1;SDS_P2;PMS_P1;PMS_P2;Temp;Humidity;BMP_temperature;BMP_pressure;BME280_temperature;BME280_humidity;BME280_pressure;Samples;Min_cycle;Max_cycle;Signal;HPM_P1;HPM_P2
2022/01/22 00:00:08;;;;;;;3.37;1.92;;;;;;;;;;2665420;51;21165;-77
2022/01/22 00:02:35;;;;;;;6.05;2.37;;;;;;;;;;2405612;56;21586;-76
2022/01/22 00:05:03;;;;;;;4.10;2.05;;;;;;;;;;2665721;51;21043;-77
2022/01/22 00:07:30;;;;;;;6.97;2.37;;;;;;;;;;2405471;55;21056;-77
2022/01/22 00:10:03;;;;;;;4.53;2.20;;;;;;;;;;2404957;55;21537;-78
2022/01/22 00:12:44;;;;;;;5.43;2.40;;;;;;;;;;2405955;55;21044;-77
2022/01/22 00:15:12;;;;;;;2.90;2.10;;;;;;;;;;2405531;56;21558;-79
2022/01/22 00:17:40;;;;;;;4.12;1.73;;;;;;;;;;2405437;56;21044;-79
2022/01/22 00:20:08;;;;;;;5.90;2.65;;;;;;;;;;2664991;51;21055;-77
2022/01/22 00:22:37;;;;;;;3.80;2.12;;;;;;;;;;2665410;52;21107;-78
2022/01/22 00:25:08;;;;;;;3.80;2.03;;;;;;;;;;2405404;56;21100;-79
2022/01/22 00:27:36;;;;;;;10.90;3.17;;;;;;;;;;2405516;56;21040;-77
2022/01/22 00:30:04;;;;;;;3.58;2.65;;;;;;;;;;2405282;56;21095;-79
2022/01/22 00:32:31;;;;;;;2.65;1.98;;;;;;;;;;2666075;51;21020;-79
2022/01/22 00:34:58;;;;;;;4.12;2.40;;;;;;;;;;2665691;51;21067;-78
2022/01/22 00:37:25;;;;;;;8.05;2.47;;;;;;;;;;2665642;51;21091;-79
2022/01/22 00:39:52;;;;;;;3.70;2.28;;;;;;;;;;2404991;56;21102;-78
2022/01/22 00:42:21;;;;;;;9.50;2.53;;;;;;;;;;2665795;51;21122;-79
2022/01/22 00:44:49;;;;;;;5.00;2.60;;;;;;;;;;2665686;51;21115;-78
2022/01/22 00:47:17;;;;;;;5.78;2.35;;;;;;;;;;2405546;56;21126;-78
2022/01/22 00:49:44;;;;;;;5.57;2.55;;;;;;;;;;2404946;56;21066;-78
2022/01/22 00:52:11;;;;;;;4.70;2.55;;;;;;;;;;2405179;56;21090;-77
2022/01/22 00:54:38;;;;;;;6.55;2.72;;;;;;;;;;2665718;51;21023;-78
2022/01/22 00:57:05;;;;;;;6.00;2.62;;;;;;;;;;2665362;51;21043;-78
2022/01/22 00:59:32;;;;;;;4.50;2.87;;;;;;;;;;2665270;51;21063;-78
2022/01/22 01:01:59;;;;;;;6.45;3.30;;;;;;;;;;2405351;55;21044;-78
2022/01/22 01:04:28;;;;;;;4.65;2.40;;;;;;;;;;2404906;56;21083;-78
2022/01/22 01:06:55;;;;;;;4.47;2.30;;;;;;;;;;2405522;56;21039;-79
2022/01/22 01:09:22;;;;;;;5.90;2.55;;;;;;;;;;2664933;51;21064;-76
2022/01/22 01:11:54;;;;;;;5.50;2.85;;;;;;;;;;2665553;51;21575;-79
2022/01/22 01:14:31;;;;;;;8.70;2.83;;;;;;;;;;2665242;51;21060;-79
2022/01/22 01:17:10;;;;;;;3.72;2.42;;;;;;;;;;2405031;56;21051;-77
2022/01/22 01:33:32;;;;;;;4.80;2.78;;;;;;;;;;2404313;56;20976;-79
2022/01/22 01:36:00;;;;;;;5.45;2.65;;;;;;;;;;2405144;56;21032;-79
2022/01/22 01:38:28;;;;;;;4.03;2.37;;;;;;;;;;2665974;52;21044;-78
2022/01/22 01:41:02;;;;;;;7.65;2.95;;;;;;;;;;2665608;51;21043;-79
2022/01/22 01:43:34;;;;;;;5.82;2.92;;;;;;;;;;2405625;56;21207;-77
2022/01/22 01:46:02;;;;;;;5.53;2.60;;;;;;;;;;2405793;55;21056;-77
2022/01/22 01:48:37;;;;;;;8.23;3.58;;;;;;;;;;2665469;51;21562;-79
2022/01/22 01:51:04;;;;;;;8.30;3.65;;;;;;;;;;2664956;51;21044;-78
2022/01/22 01:53:46;;;;;;;13.52;3.58;;;;;;;;;;2665407;52;21025;-78
2022/01/22 01:59:00;;;;;;;6.85;3.45;;;;;;;;;;2405038;56;21091;-78
2022/01/22 02:01:27;;;;;;;8.07;3.85;;;;;;;;;;2405134;55;21054;-77
2022/01/22 02:03:54;;;;;;;9.20;3.87;;;;;;;;;;2405183;56;21522;-78
2022/01/22 02:06:21;;;;;;;8.82;3.50;;;;;;;;;;2664885;51;21059;-76
2022/01/22 02:08:48;;;;;;;14.70;3.85;;;;;;;;;;2404916;56;21585;-78
2022/01/22 02:11:18;;;;;;;12.45;4.93;;;;;;;;;;2664925;52;21541;-76
2022/01/22 02:13:59;;;;;;;13.60;4.80;;;;;;;;;;2405290;56;21115;-76
2022/01/22 02:24:46;;;;;;;11.38;4.53;;;;;;;;;;2404297;56;20972;-74
2022/01/22 02:27:14;;;;;;;14.20;4.20;;;;;;;;;;2404441;55;21559;-77
2022/01/22 02:29:41;;;;;;;12.70;4.72;;;;;;;;;;2664143;52;21039;-76
2022/01/22 02:32:40;;;;;;;11.80;4.85;;;;;;;;;;2664342;52;22051;-76
2022/01/22 02:35:12;;;;;;;11.70;5.47;;;;;;;;;;2405567;56;21109;-76
2022/01/22 02:37:45;;;;;;;14.00;4.57;;;;;;;;;;2405449;56;21036;-79
2022/01/22 02:40:17;;;;;;;13.07;5.62;;;;;;;;;;2665172;52;21036;-79
2022/01/22 02:42:45;;;;;;;16.80;5.00;;;;;;;;;;2405713;55;21064;-79
2022/01/22 02:45:17;;;;;;;9.82;4.12;;;;;;;;;;2405413;56;21131;-78
2022/01/22 02:47:44;;;;;;;12.65;4.37;;;;;;;;;;2404728;55;21052;-77
2022/01/22 02:50:13;;;;;;;16.50;6.45;;;;;;;;;;2404063;55;21666;-77
2022/01/22 02:52:40;;;;;;;9.18;4.40;;;;;;;;;;2664556;52;22014;-77
2022/01/22 02:55:08;;;;;;;7.28;3.28;;;;;;;;;;2664293;52;21531;-77
2022/01/22 02:57:35;;;;;;;7.80;3.87;;;;;;;;;;2404392;55;21132;-77
2022/01/22 03:00:04;;;;;;;14.73;4.78;;;;;;;;;;2404079;56;21123;-76
2022/01/22 03:02:31;;;;;;;12.43;4.35;;;;;;;;;;2404494;56;21086;-76
2022/01/22 03:05:00;;;;;;;16.65;5.10;;;;;;;;;;2664191;52;21674;-74
2022/01/22 03:07:27;;;;;;;14.40;4.60;;;;;;;;;;2404486;55;21364;-76
2022/01/22 03:10:00;;;;;;;13.77;4.62;;;;;;;;;;2664007;51;21040;-76
2022/01/22 03:12:53;;;;;;;;;;;;;;;;;;2408246;56;21043;-76
2022/01/22 03:15:35;;;;;;;10.20;4.07;;;;;;;;;;2404786;56;20052;-76
2022/01/22 03:18:07;;;;;;;10.50;4.30;;;;;;;;;;2664879;52;21103;-76
2022/01/22 03:20:49;;;;;;;9.07;4.47;;;;;;;;;;2403999;56;21206;-76
2022/01/22 03:28:58;;;;;;;12.43;4.65;;;;;;;;;;2403474;56;20955;-77
2022/01/22 03:31:25;;;;;;;17.87;4.82;;;;;;;;;;2665022;52;21104;-77
2022/01/22 03:33:53;;;;;;;14.18;4.00;;;;;;;;;;2403129;56;21052;-76
2022/01/22 03:36:20;;;;;;;12.90;4.87;;;;;;;;;;2664156;51;21571;-78
2022/01/22 03:38:47;;;;;;;13.77;4.53;;;;;;;;;;2404240;55;21040;-77
2022/01/22 03:41:14;;;;;;;11.65;4.05;;;;;;;;;;2404599;55;21044;-77
2022/01/22 03:43:43;;;;;;;13.38;4.35;;;;;;;;;;2404445;55;21115;-77
2022/01/22 03:46:10;;;;;;;12.45;4.47;;;;;;;;;;2664542;51;21027;-76
2022/01/22 03:48:37;;;;;;;7.12;3.78;;;;;;;;;;2664263;52;21040;-77
2022/01/22 03:51:04;;;;;;;16.20;4.35;;;;;;;;;;2404632;56;21076;-77
2022/01/22 03:53:31;;;;;;;18.40;4.65;;;;;;;;;;2404238;56;21613;-77
2022/01/22 03:56:02;;;;;;;12.60;4.22;;;;;;;;;;2404361;56;21095;-75
2022/01/22 03:58:30;;;;;;;9.13;4.37;;;;;;;;;;2404512;56;21626;-77
2022/01/22 04:01:23;;;;;;;14.90;4.00;;;;;;;;;;2664106;52;21601;-77
2022/01/22 04:03:57;;;;;;;10.25;4.85;;;;;;;;;;2664666;51;21040;-77
2022/01/22 04:07:01;;;;;;;9.30;4.00;;;;;;;;;;2664488;51;21151;-77
2022/01/22 04:09:31;;;;;;;18.70;4.20;;;;;;;;;;2664040;51;21310;-76
2022/01/22 04:11:59;;;;;;;13.55;5.65;;;;;;;;;;2664752;51;21183;-77
2022/01/22 04:14:32;;;;;;;10.90;5.22;;;;;;;;;;2404184;56;21036;-77
2022/01/22 04:17:09;;;;;;;14.05;5.25;;;;;;;;;;2404579;56;21415;-77
2022/01/22 04:25:29;;;;;;;15.63;5.45;;;;;;;;;;2404437;56;21032;-77
2022/01/22 04:27:57;;;;;;;12.75;5.30;;;;;;;;;;2405098;56;21052;-77
2022/01/22 04:30:25;;;;;;;19.23;5.53;;;;;;;;;;2664740;51;21099;-75
2022/01/22 04:32:52;;;;;;;21.95;5.80;;;;;;;;;;2404627;56;21035;-76
2022/01/22 04:35:22;;;;;;;11.75;6.35;;;;;;;;;;2665335;51;21028;-77
2022/01/22 04:37:50;;;;;;;17.20;4.87;;;;;;;;;;2665192;51;21040;-77
2022/01/22 04:40:17;;;;;;;13.38;4.50;;;;;;;;;;2404115;55;21597;-77
2022/01/22 04:42:44;;;;;;;13.62;4.55;;;;;;;;;;2441821;51;21489;-78
2022/01/22 04:45:19;;;;;;;11.65;5.00;;;;;;;;;;2641503;52;21019;-77
2022/01/22 04:47:53;;;;;;;8.88;4.80;;;;;;;;;;2641808;52;21051;-78
2022/01/22 04:55:52;;;;;;;14.25;5.65;;;;;;;;;;2385272;56;20970;-76
2022/01/22 04:58:19;;;;;;;16.67;5.25;;;;;;;;;;2385507;56;21025;-77
2022/01/22 05:00:46;;;;;;;15.50;5.68;;;;;;;;;;2641184;52;21593;-75
2022/01/22 05:03:15;;;;;;;14.87;5.25;;;;;;;;;;2385019;56;21631;-77
2022/01/22 05:05:43;;;;;;;16.23;4.80;;;;;;;;;;2385631;56;21085;-75
2022/01/22 05:08:10;;;;;;;15.55;4.82;;;;;;;;;;2639434;52;21524;-77
2022/01/22 05:10:37;;;;;;;20.67;5.85;;;;;;;;;;2384898;56;21023;-77
2022/01/22 05:13:04;;;;;;;18.67;5.30;;;;;;;;;;2641240;52;21022;-77
2022/01/22 05:15:31;;;;;;;22.40;7.57;;;;;;;;;;2641139;52;21026;-77
2022/01/22 05:17:58;;;;;;;14.00;5.53;;;;;;;;;;2385378;56;21083;-76
2022/01/22 05:20:29;;;;;;;16.50;6.15;;;;;;;;;;2640754;51;21070;-77
2022/01/22 05:23:01;;;;;;;14.90;4.93;;;;;;;;;;2385208;56;21089;-77
2022/01/22 05:25:33;;;;;;;13.93;5.75;;;;;;;;;;2641413;52;21058;-77
2022/01/22 05:28:17;;;;;;;10.85;4.65;;;;;;;;;;2385239;56;21199;-74
2022/01/22 05:39:10;;;;;;;20.88;6.45;;;;;;;;;;2385380;56;21021;-76
2022/01/22 05:41:39;;;;;;;14.73;5.22;;;;;;;;;;2385626;56;21126;-77
2022/01/22 05:44:07;;;;;;;16.70;5.97;;;;;;;;;;2641614;52;21089;-77
2022/01/22 05:46:34;;;;;;;20.60;6.12;;;;;;;;;;2385303;56;21035;-77
2022/01/22 05:49:01;;;;;;;16.42;5.62;;;;;;;;;;2385378;56;21042;-77
2022/01/22 05:51:28;;;;;;;18.35;5.25;;;;;;;;;;2641393;52;21026;-77
2022/01/22 05:54:18;;;;;;;15.43;5.70;;;;;;;;;;2385431;56;21593;-76
2022/01/22 05:59:39;;;;;;;18.33;6.10;;;;;;;;;;2577277;51;21030;-77
2022/01/22 06:02:07;;;;;;;15.32;5.10;;;;;;;;;;2385473;56;21085;-76
2022/01/22 06:04:35;;;;;;;18.02;6.72;;;;;;;;;;2640336;52;21154;-78
2022/01/22 06:07:02;;;;;;;19.85;5.32;;;;;;;;;;2385221;56;21038;-77
2022/01/22 06:09:31;;;;;;;22.52;5.85;;;;;;;;;;2641367;51;21077;-78
2022/01/22 06:12:14;;;;;;;14.77;5.97;;;;;;;;;;2385781;56;21129;-77
2022/01/22 06:14:41;;;;;;;14.63;5.15;;;;;;;;;;2642466;52;21022;-79
2022/01/22 06:17:09;;;;;;;16.62;5.32;;;;;;;;;;2641974;52;21576;-78
2022/01/22 06:19:36;;;;;;;20.50;7.40;;;;;;;;;;2641378;51;21038;-78
2022/01/22 06:22:04;;;;;;;17.98;5.50;;;;;;;;;;2386136;56;21031;-79
2022/01/22 06:24:31;;;;;;;15.90;6.15;;;;;;;;;;2641790;52;21665;-78
2022/01/22 06:26:58;;;;;;;16.92;5.78;;;;;;;;;;2385757;56;21061;-77
2022/01/22 06:29:25;;;;;;;18.92;6.57;;;;;;;;;;2385257;56;21038;-78
2022/01/22 06:31:52;;;;;;;28.80;10.20;;;;;;;;;;2386002;56;21038;-79
2022/01/22 06:34:19;;;;;;;26.25;8.70;;;;;;;;;;2385968;56;21105;-79
2022/01/22 06:36:46;;;;;;;21.77;7.22;;;;;;;;;;2385902;56;21038;-80
2022/01/22 06:39:15;;;;;;;22.80;6.72;;;;;;;;;;2384476;56;21010;-77
2022/01/22 06:41:46;;;;;;;15.25;6.10;;;;;;;;;;2385083;56;21010;-77
2022/01/22 06:44:13;;;;;;;20.27;5.87;;;;;;;;;;2384407;56;21106;-78
2022/01/22 06:46:41;;;;;;;19.65;6.50;;;;;;;;;;2640575;52;21552;-77
2022/01/22 06:49:08;;;;;;;17.98;7.97;;;;;;;;;;2384687;56;21520;-76
2022/01/22 06:51:35;;;;;;;16.92;6.25;;;;;;;;;;2384962;56;21027;-76
2022/01/22 06:54:03;;;;;;;20.45;7.82;;;;;;;;;;2384548;56;22170;-75
2022/01/22 06:56:30;;;;;;;14.90;5.82;;;;;;;;;;2383911;56;21512;-76
2022/01/22 06:58:58;;;;;;;13.65;5.50;;;;;;;;;;2384179;56;21018;-77
2022/01/22 07:01:25;;;;;;;19.62;6.82;;;;;;;;;;2384515;56;21117;-76
2022/01/22 07:03:52;;;;;;;17.20;6.90;;;;;;;;;;2384497;56;21102;-76
2022/01/22 07:06:19;;;;;;;17.58;6.60;;;;;;;;;;2384400;56;21011;-77
2022/01/22 07:08:46;;;;;;;22.48;6.95;;;;;;;;;;2638282;52;21038;-75
2022/01/22 07:11:13;;;;;;;20.77;7.62;;;;;;;;;;2382726;56;21065;-76
2022/01/22 07:13:40;;;;;;;15.48;5.47;;;;;;;;;;2383979;56;21081;-74
2022/01/22 07:16:07;;;;;;;21.10;6.20;;;;;;;;;;2385259;56;21023;-75
2022/01/22 07:18:35;;;;;;;22.10;6.75;;;;;;;;;;2385509;56;21030;-73
2022/01/22 07:21:09;;;;;;;21.85;7.68;;;;;;;;;;2384452;56;21643;-77
2022/01/22 07:24:22;;;;;;;22.25;6.72;;;;;;;;;;2385055;56;21141;-76
2022/01/22 07:26:49;;;;;;;27.62;8.52;;;;;;;;;;2383897;56;21042;-75
2022/01/22 07:29:16;;;;;;;23.87;7.25;;;;;;;;;;2384482;56;21010;-74
2022/01/22 07:31:43;;;;;;;24.33;7.40;;;;;;;;;;2385483;56;21025;-75
2022/01/22 07:34:10;;;;;;;23.85;7.25;;;;;;;;;;2385476;56;21555;-74
2022/01/22 07:36:37;;;;;;;24.02;6.80;;;;;;;;;;2385083;56;21097;-74
2022/01/22 07:39:05;;;;;;;26.60;7.43;;;;;;;;;;2640236;52;21089;-75
2022/01/22 07:41:32;;;;;;;17.92;6.43;;;;;;;;;;2385091;56;21034;-74
2022/01/22 07:43:59;;;;;;;23.02;6.70;;;;;;;;;;2385448;56;21522;-73
2022/01/22 07:46:27;;;;;;;23.85;7.18;;;;;;;;;;2385384;56;21105;-74
2022/01/22 07:48:54;;;;;;;21.27;6.35;;;;;;;;;;2384866;56;21098;-74
2022/01/22 07:51:21;;;;;;;21.23;7.00;;;;;;;;;;2385133;56;21033;-74
2022/01/22 07:53:48;;;;;;;19.65;7.32;;;;;;;;;;2385231;56;21097;-75
2022/01/22 07:56:15;;;;;;;19.62;5.55;;;;;;;;;;2385129;56;21086;-75
2022/01/22 07:58:43;;;;;;;13.68;5.72;;;;;;;;;;2640706;52;21090;-75
2022/01/22 08:01:10;;;;;;;13.95;5.80;;;;;;;;;;2385002;56;21066;-74
2022/01/22 08:03:37;;;;;;;17.05;5.72;;;;;;;;;;2384860;56;21671;-77
2022/01/22 08:06:04;;;;;;;14.48;6.03;;;;;;;;;;2641036;52;21141;-74
2022/01/22 08:08:34;;;;;;;22.27;6.93;;;;;;;;;;2384593;56;21038;-75
2022/01/22 08:11:01;;;;;;;12.45;5.50;;;;;;;;;;2641130;52;21023;-74
2022/01/22 08:13:29;;;;;;;13.70;5.93;;;;;;;;;;2641079;52;21082;-75
2022/01/22 08:15:56;;;;;;;13.75;5.95;;;;;;;;;;2385260;56;21102;-76
2022/01/22 08:18:23;;;;;;;14.98;4.90;;;;;;;;;;2385301;56;21102;-74
2022/01/22 08:20:51;;;;;;;11.68;5.25;;;;;;;;;;2384415;56;21038;-74
2022/01/22 08:23:20;;;;;;;9.82;4.50;;;;;;;;;;2385572;56;21067;-75
2022/01/22 08:25:48;;;;;;;12.50;4.97;;;;;;;;;;2385044;56;20999;-76
2022/01/22 08:31:06;;;;;;;10.95;4.68;;;;;;;;;;2383830;56;21050;-76
2022/01/22 08:36:19;;;;;;;7.93;4.10;;;;;;;;;;2333232;56;21054;-76
2022/01/22 08:38:46;;;;;;;10.98;4.12;;;;;;;;;;2383212;56;21038;-74
2022/01/22 08:41:13;;;;;;;6.87;3.65;;;;;;;;;;2640122;52;21022;-76
2022/01/22 08:43:40;;;;;;;11.20;3.80;;;;;;;;;;2384791;56;21184;-75
2022/01/22 08:46:07;;;;;;;11.02;4.37;;;;;;;;;;2385024;56;21030;-78
2022/01/22 08:48:35;;;;;;;7.57;3.80;;;;;;;;;;2385158;56;21034;-76
2022/01/22 08:51:02;;;;;;;5.18;2.97;;;;;;;;;;2639438;51;21031;-76
2022/01/22 08:53:32;;;;;;;9.05;4.30;;;;;;;;;;2383657;56;21010;-73
2022/01/22 08:56:00;;;;;;;7.20;3.62;;;;;;;;;;2385025;56;21042;-73
2022/01/22 08:58:27;;;;;;;7.60;3.42;;;;;;;;;;2384503;56;21070;-77
2022/01/22 09:00:54;;;;;;;9.55;4.00;;;;;;;;;;2384719;56;21596;-78
2022/01/22 09:03:22;;;;;;;8.10;3.95;;;;;;;;;;2385043;56;21038;-76
2022/01/22 09:05:49;;;;;;;5.97;3.30;;;;;;;;;;2384872;56;21042;-75
2022/01/22 09:08:16;;;;;;;8.35;3.25;;;;;;;;;;2384817;56;21556;-75
2022/01/22 09:10:43;;;;;;;8.25;3.22;;;;;;;;;;2384653;56;21031;-79
2022/01/22 09:13:10;;;;;;;7.90;3.70;;;;;;;;;;2384626;56;21102;-75
2022/01/22 09:15:38;;;;;;;4.53;2.75;;;;;;;;;;2384931;56;21022;-75
2022/01/22 09:18:06;;;;;;;5.28;2.62;;;;;;;;;;2384922;56;21620;-77
2022/01/22 09:20:55;;;;;;;4.65;2.33;;;;;;;;;;2384675;56;21037;-79
2022/01/22 09:23:22;;;;;;;6.65;4.03;;;;;;;;;;2384660;56;21081;-75
2022/01/22 09:25:49;;;;;;;3.40;2.42;;;;;;;;;;2384935;56;21022;-74
2022/01/22 09:28:16;;;;;;;5.80;2.42;;;;;;;;;;2384853;56;21030;-75
2022/01/22 09:30:45;;;;;;;5.62;2.97;;;;;;;;;;2639935;51;21491;-75
2022/01/22 09:33:12;;;;;;;3.72;2.55;;;;;;;;;;2384739;56;21039;-76
2022/01/22 09:35:39;;;;;;;7.87;3.80;;;;;;;;;;2640722;52;21022;-75
2022/01/22 09:38:06;;;;;;;8.98;3.67;;;;;;;;;;2385035;56;21010;-74
2022/01/22 09:40:34;;;;;;;5.97;3.37;;;;;;;;;;2384410;56;21536;-76
2022/01/22 09:43:01;;;;;;;3.40;2.40;;;;;;;;;;2640902;52;21011;-78
2022/01/22 09:45:28;;;;;;;6.03;2.75;;;;;;;;;;2385176;56;21030;-75
2022/01/22 09:47:56;;;;;;;6.78;3.12;;;;;;;;;;2640987;52;21589;-76
2022/01/22 09:50:24;;;;;;;5.85;3.55;;;;;;;;;;2385072;56;21006;-75
2022/01/22 09:52:52;;;;;;;4.78;2.53;;;;;;;;;;2385355;56;21540;-76
2022/01/22 09:55:19;;;;;;;7.55;3.08;;;;;;;;;;2385366;56;21109;-75
2022/01/22 09:57:46;;;;;;;5.95;3.12;;;;;;;;;;2384313;56;21102;-76
2022/01/22 10:00:18;;;;;;;8.20;4.80;;;;;;;;;;2640651;51;21070;-75
2022/01/22 10:02:46;;;;;;;7.40;3.72;;;;;;;;;;2641532;52;21031;-74
2022/01/22 10:05:27;;;;;;;6.82;3.92;;;;;;;;;;2384905;56;21026;-74
2022/01/22 10:07:54;;;;;;;9.13;3.70;;;;;;;;;;2385428;56;21560;-74
2022/01/22 10:10:21;;;;;;;11.10;4.00;;;;;;;;;;2384956;56;21019;-75
2022/01/22 10:12:50;;;;;;;8.68;5.22;;;;;;;;;;2385324;56;21022;-76
2022/01/22 10:15:18;;;;;;;7.80;4.18;;;;;;;;;;2385085;56;21022;-77
2022/01/22 10:17:47;;;;;;;7.40;3.53;;;;;;;;;;2384910;56;21575;-78
2022/01/22 10:20:34;;;;;;;8.10;3.53;;;;;;;;;;2384675;56;21074;-75
2022/01/22 10:23:02;;;;;;;6.05;3.22;;;;;;;;;;2385249;56;21548;-78
2022/01/22 10:25:32;;;;;;;6.05;2.58;;;;;;;;;;2385004;56;21034;-78
2022/01/22 10:28:00;;;;;;;10.13;4.80;;;;;;;;;;2385077;56;21101;-79
2022/01/22 10:30:34;;;;;;;11.12;4.72;;;;;;;;;;2384774;56;22102;-75
2022/01/22 10:33:10;;;;;;;8.73;4.28;;;;;;;;;;2385693;56;21007;-76
2022/01/22 10:35:37;;;;;;;9.55;4.28;;;;;;;;;;2641062;52;21038;-75
2022/01/22 10:38:05;;;;;;;9.00;4.20;;;;;;;;;;2641093;52;21528;-78
2022/01/22 10:40:34;;;;;;;8.25;3.37;;;;;;;;;;2384749;56;22404;-75
2022/01/22 10:43:11;;;;;;;5.40;2.62;;;;;;;;;;2385463;56;21102;-76
2022/01/22 10:45:41;;;;;;;7.07;2.97;;;;;;;;;;2385333;56;21086;-75
2022/01/22 10:48:15;;;;;;;5.93;2.62;;;;;;;;;;2385239;56;21030;-75
2022/01/22 10:50:42;;;;;;;5.10;2.40;;;;;;;;;;2385025;56;23183;-75
2022/01/22 10:53:09;;;;;;;6.00;2.05;;;;;;;;;;2385653;56;21113;-78
2022/01/22 10:55:59;;;;;;;5.25;2.30;;;;;;;;;;2641464;52;21050;-76
2022/01/22 10:58:26;;;;;;;4.57;1.90;;;;;;;;;;2385550;56;21023;-75
2022/01/22 11:00:59;;;;;;;6.22;2.53;;;;;;;;;;2384975;56;21054;-75
2022/01/22 11:03:28;;;;;;;3.90;2.25;;;;;;;;;;2386052;56;21024;-76
2022/01/22 11:05:55;;;;;;;5.32;2.10;;;;;;;;;;2385462;56;21034;-75
2022/01/22 11:08:22;;;;;;;6.53;2.42;;;;;;;;;;2641548;52;21089;-78
2022/01/22 11:10:49;;;;;;;7.60;2.30;;;;;;;;;;2383991;56;21018;-76
2022/01/22 11:13:16;;;;;;;6.12;2.05;;;;;;;;;;2385546;56;21587;-78
2022/01/22 11:15:45;;;;;;;5.15;2.00;;;;;;;;;;2385470;56;21026;-75
2022/01/22 11:18:13;;;;;;;6.47;2.12;;;;;;;;;;2385452;56;21185;-76
2022/01/22 11:20:40;;;;;;;7.55;2.28;;;;;;;;;;2384250;56;21588;-75
2022/01/22 11:23:07;;;;;;;4.62;2.35;;;;;;;;;;2385258;56;21042;-79
2022/01/22 11:25:35;;;;;;;3.22;2.10;;;;;;;;;;2384360;56;21122;-76
2022/01/22 11:28:03;;;;;;;6.05;2.22;;;;;;;;;;2385266;56;21153;-76
2022/01/22 11:30:31;;;;;;;4.97;2.20;;;;;;;;;;2385270;56;21105;-78
2022/01/22 11:33:00;;;;;;;5.65;2.33;;;;;;;;;;2385438;56;21129;-75
2022/01/22 11:35:33;;;;;;;8.18;2.37;;;;;;;;;;2385389;56;21014;-75
2022/01/22 11:38:05;;;;;;;6.85;2.90;;;;;;;;;;2385979;56;21030;-78
2022/01/22 11:40:34;;;;;;;6.95;2.50;;;;;;;;;;2384891;56;21011;-76
2022/01/22 11:43:03;;;;;;;5.43;2.47;;;;;;;;;;2385669;56;21018;-75
2022/01/22 11:45:33;;;;;;;6.62;2.80;;;;;;;;;;2384016;56;21379;-75
2022/01/22 11:48:17;;;;;;;6.35;2.30;;;;;;;;;;2385397;56;21069;-74
2022/01/22 11:50:45;;;;;;;4.68;2.20;;;;;;;;;;2384457;56;21030;-75
2022/01/22 11:53:22;;;;;;;4.68;2.65;;;;;;;;;;2385340;56;21014;-74
2022/01/22 11:56:08;;;;;;;9.77;2.60;;;;;;;;;;2384791;56;21034;-76
2022/01/22 11:59:15;;;;;;;4.45;2.55;;;;;;;;;;2385261;56;21027;-78
2022/01/22 12:01:52;;;;;;;6.30;3.50;;;;;;;;;;2385386;56;21086;-78
2022/01/22 12:04:20;;;;;;;7.72;4.40;;;;;;;;;;2385303;56;21003;-74
2022/01/22 12:07:07;;;;;;;8.90;4.20;;;;;;;;;;2385242;56;21039;-75
2022/01/22 12:09:41;;;;;;;7.25;3.70;;;;;;;;;;2385406;56;21030;-76
2022/01/22 12:15:07;;;;;;;5.15;3.42;;;;;;;;;;2385372;56;20955;-79
2022/01/22 12:18:01;;;;;;;4.62;2.97;;;;;;;;;;2384762;56;21593;-79
2022/01/22 12:23:48;;;;;;;3.78;2.12;;;;;;;;;;2385425;56;21019;-75
2022/01/22 12:26:15;;;;;;;3.58;2.42;;;;;;;;;;2385506;56;21536;-79
2022/01/22 12:28:43;;;;;;;4.65;2.87;;;;;;;;;;2640988;52;21103;-76
2022/01/22 12:31:11;;;;;;;5.43;2.90;;;;;;;;;;2385148;56;21085;-75
2022/01/22 12:33:48;;;;;;;4.65;2.72;;;;;;;;;;2385462;56;21035;-79
2022/01/22 12:36:18;;;;;;;5.22;2.37;;;;;;;;;;2384978;56;21070;-76
2022/01/22 12:38:57;;;;;;;3.33;2.40;;;;;;;;;;2385056;56;21070;-78
2022/01/22 12:41:30;;;;;;;5.35;3.08;;;;;;;;;;2385260;56;21034;-75
2022/01/22 12:44:05;;;;;;;5.37;3.15;;;;;;;;;;2385246;56;21063;-75
2022/01/22 12:46:33;;;;;;;3.20;2.20;;;;;;;;;;2385428;56;21034;-78
2022/01/22 12:49:01;;;;;;;3.70;2.05;;;;;;;;;;2385007;56;21501;-75
2022/01/22 12:51:28;;;;;;;3.12;2.03;;;;;;;;;;2384971;56;21018;-75
2022/01/22 12:53:56;;;;;;;2.58;1.77;;;;;;;;;;2385089;56;21177;-76
2022/01/22 12:56:51;;;;;;;3.22;1.75;;;;;;;;;;2385141;56;21019;-76
2022/01/22 12:59:18;;;;;;;5.97;1.98;;;;;;;;;;2640304;51;21027;-75
2022/01/22 13:01:47;;;;;;;1.90;1.30;;;;;;;;;;2385397;56;21086;-78
2022/01/22 13:04:14;;;;;;;2.10;1.70;;;;;;;;;;2641371;52;21029;-78
2022/01/22 13:06:42;;;;;;;1.73;1.40;;;;;;;;;;2385196;56;21022;-75
2022/01/22 13:09:11;;;;;;;1.50;1.40;;;;;;;;;;2640413;51;21133;-76
2022/01/22 13:11:45;;;;;;;3.15;1.83;;;;;;;;;;2384455;56;21101;-78
2022/01/22 13:14:13;;;;;;;1.42;1.30;;;;;;;;;;2384470;56;21624;-77
2022/01/22 13:16:50;;;;;;;2.08;1.30;;;;;;;;;;2385364;56;21578;-75
2022/01/22 13:19:17;;;;;;;2.83;1.98;;;;;;;;;;2384918;56;21019;-78
2022/01/22 13:21:52;;;;;;;3.35;1.80;;;;;;;;;;2641059;52;21493;-75
2022/01/22 13:24:23;;;;;;;1.73;1.40;;;;;;;;;;2385127;56;21030;-77
2022/01/22 13:26:54;;;;;;;1.30;1.20;;;;;;;;;;2385317;56;21111;-76
2022/01/22 13:29:23;;;;;;;1.55;1.42;;;;;;;;;;2385028;56;21521;-78
2022/01/22 13:32:11;;;;;;;1.95;1.52;;;;;;;;;;2385463;56;21026;-76
2022/01/22 13:35:08;;;;;;;1.87;1.70;;;;;;;;;;2385123;56;21609;-76
2022/01/22 13:40:50;;;;;;;2.17;1.20;;;;;;;;;;2367912;56;21033;-78
2022/01/22 13:48:55;;;;;;;1.92;0.90;;;;;;;;;;2385048;56;21417;-74
2022/01/22 13:51:22;;;;;;;2.12;1.05;;;;;;;;;;2385181;56;21599;-79
2022/01/22 13:53:49;;;;;;;2.85;2.00;;;;;;;;;;2385183;56;21086;-76
2022/01/22 13:56:18;;;;;;;3.47;1.65;;;;;;;;;;2641109;52;21920;-77
2022/01/22 13:58:45;;;;;;;2.87;1.73;;;;;;;;;;2640880;52;21031;-79
2022/01/22 14:01:30;;;;;;;6.22;2.42;;;;;;;;;;2641020;52;21070;-76
2022/01/22 14:04:07;;;;;;;2.30;1.33;;;;;;;;;;2385309;56;21070;-77
2022/01/22 14:06:34;;;;;;;2.97;1.67;;;;;;;;;;2385266;56;21085;-78
2022/01/22 14:09:12;;;;;;;1.85;1.05;;;;;;;;;;2384587;56;21034;-77
2022/01/22 14:11:39;;;;;;;4.53;0.98;;;;;;;;;;2640386;52;21030;-76
2022/01/22 14:14:06;;;;;;;3.03;1.15;;;;;;;;;;2382184;56;21711;-77
2022/01/22 14:16:33;;;;;;;1.00;1.00;;;;;;;;;;2384853;56;21011;-76
2022/01/22 14:19:00;;;;;;;1.17;0.95;;;;;;;;;;2384486;56;21022;-77
2022/01/22 14:21:27;;;;;;;1.00;0.90;;;;;;;;;;2384686;56;21090;-80
2022/01/22 14:23:55;;;;;;;4.70;1.20;;;;;;;;;;2384538;56;21038;-80
2022/01/22 14:26:27;;;;;;;1.30;1.20;;;;;;;;;;2487207;52;21082;-80
2022/01/22 14:28:55;;;;;;;1.48;1.30;;;;;;;;;;2641257;52;21015;-77
2022/01/22 14:31:27;;;;;;;2.12;1.33;;;;;;;;;;2385442;56;21410;-78
2022/01/22 14:33:55;;;;;;;2.00;0.95;;;;;;;;;;2640189;52;21034;-77
2022/01/22 14:36:24;;;;;;;2.53;1.27;;;;;;;;;;2384569;56;21095;-78
2022/01/22 14:38:53;;;;;;;2.17;1.20;;;;;;;;;;2381932;56;21608;-78
2022/01/22 14:47:10;;;;;;;2.45;1.30;;;;;;;;;;2385243;56;21018;-78
2022/01/22 14:49:39;;;;;;;2.42;1.08;;;;;;;;;;2384869;56;21022;-76
2022/01/22 14:52:07;;;;;;;1.12;0.98;;;;;;;;;;2640650;52;21518;-76
2022/01/22 14:54:35;;;;;;;2.08;1.00;;;;;;;;;;2385038;56;21106;-77
2022/01/22 14:57:03;;;;;;;1.05;0.77;;;;;;;;;;2385060;56;21086;-77
2022/01/22 14:59:30;;;;;;;3.12;1.45;;;;;;;;;;2639045;51;21042;-77
2022/01/22 15:01:58;;;;;;;2.65;0.90;;;;;;;;;;2382913;56;21038;-76
2022/01/22 15:04:25;;;;;;;2.15;1.00;;;;;;;;;;2382127;56;21031;-76
2022/01/22 15:06:52;;;;;;;2.28;1.00;;;;;;;;;;2636796;52;21048;-77
2022/01/22 15:09:19;;;;;;;1.10;0.80;;;;;;;;;;2382616;56;21082;-78
2022/01/22 15:11:46;;;;;;;1.55;1.12;;;;;;;;;;2385316;56;21022;-80
2022/01/22 15:14:14;;;;;;;1.20;1.10;;;;;;;;;;2386674;56;21619;-77
2022/01/22 15:16:47;;;;;;;1.98;1.10;;;;;;;;;;2384633;56;21034;-76
2022/01/22 15:19:17;;;;;;;2.40;1.10;;;;;;;;;;2384568;56;21197;-75
2022/01/22 15:21:45;;;;;;;2.05;1.30;;;;;;;;;;2384647;56;21030;-78
2022/01/22 15:24:12;;;;;;;3.37;1.23;;;;;;;;;;2384366;56;21118;-77
2022/01/22 15:26:39;;;;;;;1.77;1.02;;;;;;;;;;2385050;56;21619;-78
2022/01/22 15:29:07;;;;;;;2.28;1.45;;;;;;;;;;2384701;56;21548;-78
2022/01/22 15:31:36;;;;;;;3.97;1.30;;;;;;;;;;2383819;56;21117;-77
2022/01/22 15:34:13;;;;;;;1.90;1.35;;;;;;;;;;2385119;56;21085;-77
2022/01/22 15:36:44;;;;;;;3.60;1.55;;;;;;;;;;2383322;56;21097;-79
2022/01/22 15:39:12;;;;;;;1.35;1.25;;;;;;;;;;2381216;56;21007;-76
2022/01/22 15:41:39;;;;;;;1.83;1.23;;;;;;;;;;2384063;56;21081;-76
2022/01/22 15:44:09;;;;;;;1.80;1.40;;;;;;;;;;2499394;51;71788;-82
2022/01/22 15:46:38;;;;;;;2.08;1.30;;;;;;;;;;2643077;52;21059;-83
2022/01/22 15:49:05;;;;;;;1.80;1.17;;;;;;;;;;2641990;52;21046;-83
2022/01/22 15:51:32;;;;;;;1.50;1.37;;;;;;;;;;2387093;56;21082;-82
2022/01/22 15:53:59;;;;;;;1.55;1.30;;;;;;;;;;2387654;56;21038;-83
2022/01/22 15:56:26;;;;;;;3.97;1.60;;;;;;;;;;2387464;56;21062;-83
2022/01/22 15:58:53;;;;;;;1.92;1.70;;;;;;;;;;2644182;52;22122;-82
2022/01/22 16:01:20;;;;;;;3.37;1.65;;;;;;;;;;2386289;56;21538;-81
2022/01/22 16:03:54;;;;;;;2.58;1.95;;;;;;;;;;2387849;56;21058;-83
2022/01/22 16:06:22;;;;;;;2.70;2.17;;;;;;;;;;2388393;56;21007;-82
2022/01/22 16:08:50;;;;;;;4.25;2.35;;;;;;;;;;2387663;56;21113;-82
2022/01/22 16:11:17;;;;;;;2.87;2.58;;;;;;;;;;2640504;52;21046;-82
2022/01/22 16:13:44;;;;;;;4.50;3.20;;;;;;;;;;2386333;56;22266;-82